sensor_id;sensor_type;location;lat;lon;timestamp;P1;durP1;ratioP1;P2;durP2;ratioP2
58244;SDS011;44550;43.864;25.986;2022-10-16T00:05:31;20.15;;;13.57;;
58244;SDS011;44550;43.864;25.986;2022-10-16T00:09:31;16.50;;;11.10;;
58244;SDS011;44550;43.864;25.986;2022-10-16T00:13:30;13.75;;;10.23;;
58244;SDS011;44550;43.864;25.986;2022-10-16T00:17:30;14.73;;;10.13;;
58244;SDS011;44550;43.864;25.986;2022-10-16T00:21:32;15.82;;;9.68;;
58244;SDS011;44550;43.864;25.986;2022-10-16T00:25:32;14.88;;;9.95;;
58244;SDS011;44550;43.864;25.986;2022-10-16T00:29:32;21.38;;;19.15;;
58244;SDS011;44550;43.864;25.986;2022-10-16T00:33:32;15.93;;;10.60;;
58244;SDS011;44550;43.864;25.986;2022-10-16T00:37:34;12.13;;;8.63;;
58244;SDS011;44550;43.864;25.986;2022-10-16T00:41:33;13.25;;;8.23;;
58244;SDS011;44550;43.864;25.986;2022-10-16T00:45:33;14.88;;;9.70;;
58244;SDS011;44550;43.864;25.986;2022-10-16T00:53:34;11.27;;;8.90;;
58244;SDS011;44550;43.864;25.986;2022-10-16T00:57:33;18.73;;;13.13;;
58244;SDS011;44550;43.864;25.986;2022-10-16T01:01:34;13.82;;;8.85;;
58244;SDS011;44550;43.864;25.986;2022-10-16T01:05:34;24.38;;;18.77;;
58244;SDS011;44550;43.864;25.986;2022-10-16T01:09:49;14.70;;;13.18;;
58244;SDS011;44550;43.864;25.986;2022-10-16T01:13:57;14.85;;;9.30;;
58244;SDS011;44550;43.864;25.986;2022-10-16T01:18:03;15.77;;;10.27;;
58244;SDS011;44550;43.864;25.986;2022-10-16T01:22:07;19.33;;;11.95;;
58244;SDS011;44550;43.864;25.986;2022-10-16T01:26:14;12.18;;;10.25;;
58244;SDS011;44550;43.864;25.986;2022-10-16T01:30:36;16.52;;;10.10;;
58244;SDS011;44550;43.864;25.986;2022-10-16T01:34:41;15.52;;;10.38;;
58244;SDS011;44550;43.864;25.986;2022-10-16T01:38:46;15.38;;;10.10;;
58244;SDS011;44550;43.864;25.986;2022-10-16T01:42:50;11.05;;;8.57;;
58244;SDS011;44550;43.864;25.986;2022-10-16T01:46:57;14.23;;;9.13;;
58244;SDS011;44550;43.864;25.986;2022-10-16T01:50:59;13.60;;;11.00;;
58244;SDS011;44550;43.864;25.986;2022-10-16T01:55:02;22.65;;;10.45;;
58244;SDS011;44550;43.864;25.986;2022-10-16T01:59:05;11.18;;;9.10;;
58244;SDS011;44550;43.864;25.986;2022-10-16T02:03:11;15.82;;;9.95;;
58244;SDS011;44550;43.864;25.986;2022-10-16T02:07:13;13.63;;;9.00;;
58244;SDS011;44550;43.864;25.986;2022-10-16T02:11:13;13.30;;;8.15;;
58244;SDS011;44550;43.864;25.986;2022-10-16T02:15:12;12.50;;;8.60;;
58244;SDS011;44550;43.864;25.986;2022-10-16T02:23:17;16.15;;;9.35;;
58244;SDS011;44550;43.864;25.986;2022-10-16T02:27:24;21.45;;;11.13;;
58244;SDS011;44550;43.864;25.986;2022-10-16T02:31:30;17.00;;;10.77;;
58244;SDS011;44550;43.864;25.986;2022-10-16T02:35:37;16.88;;;10.48;;
58244;SDS011;44550;43.864;25.986;2022-10-16T02:39:38;14.07;;;10.13;;
58244;SDS011;44550;43.864;25.986;2022-10-16T02:43:38;15.48;;;9.65;;
58244;SDS011;44550;43.864;25.986;2022-10-16T02:47:38;15.13;;;10.18;;
58244;SDS011;44550;43.864;25.986;2022-10-16T02:51:42;11.48;;;8.27;;
58244;SDS011;44550;43.864;25.986;2022-10-16T02:55:41;10.73;;;9.52;;
58244;SDS011;44550;43.864;25.986;2022-10-16T02:59:42;14.00;;;10.60;;
58244;SDS011;44550;43.864;25.986;2022-10-16T03:07:43;15.40;;;9.73;;
58244;SDS011;44550;43.864;25.986;2022-10-16T03:11:43;14.48;;;8.70;;
58244;SDS011;44550;43.864;25.986;2022-10-16T03:15:43;15.77;;;8.23;;
58244;SDS011;44550;43.864;25.986;2022-10-16T03:19:42;14.57;;;8.80;;
58244;SDS011;44550;43.864;25.986;2022-10-16T03:23:44;14.50;;;10.02;;
58244;SDS011;44550;43.864;25.986;2022-10-16T03:27:44;13.95;;;9.07;;
58244;SDS011;44550;43.864;25.986;2022-10-16T03:31:43;15.25;;;8.10;;
58244;SDS011;44550;43.864;25.986;2022-10-16T03:35:50;12.13;;;9.25;;
58244;SDS011;44550;43.864;25.986;2022-10-16T03:39:53;13.20;;;11.25;;
58244;SDS011;44550;43.864;25.986;2022-10-16T03:43:53;20.13;;;14.57;;
58244;SDS011;44550;43.864;25.986;2022-10-16T03:47:52;22.00;;;14.98;;
58244;SDS011;44550;43.864;25.986;2022-10-16T03:51:52;20.13;;;12.50;;
58244;SDS011;44550;43.864;25.986;2022-10-16T03:55:53;22.67;;;13.23;;
58244;SDS011;44550;43.864;25.986;2022-10-16T03:59:53;19.67;;;12.93;;
58244;SDS011;44550;43.864;25.986;2022-10-16T04:03:52;25.15;;;15.18;;
58244;SDS011;44550;43.864;25.986;2022-10-16T04:07:52;22.38;;;13.65;;
58244;SDS011;44550;43.864;25.986;2022-10-16T04:15:53;23.67;;;13.45;;
58244;SDS011;44550;43.864;25.986;2022-10-16T04:23:52;37.38;;;16.33;;
58244;SDS011;44550;43.864;25.986;2022-10-16T04:27:55;21.20;;;14.63;;
58244;SDS011;44550;43.864;25.986;2022-10-16T04:31:55;23.52;;;15.15;;
58244;SDS011;44550;43.864;25.986;2022-10-16T04:35:58;22.85;;;16.40;;
58244;SDS011;44550;43.864;25.986;2022-10-16T04:39:59;19.25;;;14.57;;
58244;SDS011;44550;43.864;25.986;2022-10-16T04:44:03;33.15;;;15.10;;
58244;SDS011;44550;43.864;25.986;2022-10-16T04:48:07;182.07;;;22.13;;
58244;SDS011;44550;43.864;25.986;2022-10-16T04:52:07;181.10;;;21.85;;
58244;SDS011;44550;43.864;25.986;2022-10-16T04:56:07;135.88;;;20.67;;
58244;SDS011;44550;43.864;25.986;2022-10-16T05:00:10;190.52;;;22.73;;
58244;SDS011;44550;43.864;25.986;2022-10-16T05:04:13;52.05;;;15.93;;
58244;SDS011;44550;43.864;25.986;2022-10-16T05:08:19;23.92;;;16.40;;
58244;SDS011;44550;43.864;25.986;2022-10-16T05:12:19;33.35;;;18.17;;
58244;SDS011;44550;43.864;25.986;2022-10-16T05:16:22;32.97;;;27.00;;
58244;SDS011;44550;43.864;25.986;2022-10-16T05:20:22;31.38;;;22.20;;
58244;SDS011;44550;43.864;25.986;2022-10-16T05:24:22;23.10;;;16.23;;
58244;SDS011;44550;43.864;25.986;2022-10-16T05:28:22;16.58;;;11.70;;
58244;SDS011;44550;43.864;25.986;2022-10-16T05:32:29;21.58;;;14.50;;
58244;SDS011;44550;43.864;25.986;2022-10-16T05:36:32;16.60;;;12.10;;
58244;SDS011;44550;43.864;25.986;2022-10-16T05:40:40;21.25;;;14.32;;
58244;SDS011;44550;43.864;25.986;2022-10-16T05:44:44;16.55;;;11.25;;
58244;SDS011;44550;43.864;25.986;2022-10-16T05:48:56;10.63;;;9.43;;
58244;SDS011;44550;43.864;25.986;2022-10-16T05:53:01;11.85;;;8.38;;
58244;SDS011;44550;43.864;25.986;2022-10-16T05:57:09;10.10;;;7.95;;
58244;SDS011;44550;43.864;25.986;2022-10-16T06:01:09;16.50;;;8.48;;
58244;SDS011;44550;43.864;25.986;2022-10-16T06:05:30;10.50;;;7.80;;
58244;SDS011;44550;43.864;25.986;2022-10-16T06:09:48;12.02;;;7.70;;
58244;SDS011;44550;43.864;25.986;2022-10-16T06:18:25;90.65;;;81.20;;
58244;SDS011;44550;43.864;25.986;2022-10-16T06:22:30;22.42;;;20.23;;
58244;SDS011;44550;43.864;25.986;2022-10-16T06:26:45;15.30;;;11.82;;
58244;SDS011;44550;43.864;25.986;2022-10-16T06:30:45;17.38;;;14.32;;
58244;SDS011;44550;43.864;25.986;2022-10-16T06:34:58;25.27;;;17.30;;
58244;SDS011;44550;43.864;25.986;2022-10-16T06:39:22;20.90;;;12.55;;
58244;SDS011;44550;43.864;25.986;2022-10-16T06:43:23;17.25;;;13.65;;
58244;SDS011;44550;43.864;25.986;2022-10-16T06:48:07;21.65;;;12.25;;
58244;SDS011;44550;43.864;25.986;2022-10-16T06:52:38;17.92;;;12.52;;
58244;SDS011;44550;43.864;25.986;2022-10-16T06:57:42;15.70;;;11.60;;
58244;SDS011;44550;43.864;25.986;2022-10-16T07:02:06;14.38;;;11.75;;
58244;SDS011;44550;43.864;25.986;2022-10-16T07:06:07;16.20;;;12.95;;
58244;SDS011;44550;43.864;25.986;2022-10-16T07:10:08;16.50;;;14.23;;
58244;SDS011;44550;43.864;25.986;2022-10-16T07:14:15;18.38;;;14.50;;
58244;SDS011;44550;43.864;25.986;2022-10-16T07:18:15;14.52;;;13.02;;
58244;SDS011;44550;43.864;25.986;2022-10-16T07:26:14;15.82;;;13.98;;
58244;SDS011;44550;43.864;25.986;2022-10-16T07:34:15;24.65;;;13.32;;
58244;SDS011;44550;43.864;25.986;2022-10-16T07:38:18;11.43;;;9.88;;
58244;SDS011;44550;43.864;25.986;2022-10-16T07:42:18;30.40;;;13.00;;
58244;SDS011;44550;43.864;25.986;2022-10-16T07:46:21;12.45;;;10.77;;
58244;SDS011;44550;43.864;25.986;2022-10-16T07:50:24;26.17;;;11.48;;
58244;SDS011;44550;43.864;25.986;2022-10-16T07:54:25;13.85;;;7.60;;
58244;SDS011;44550;43.864;25.986;2022-10-16T07:58:32;12.65;;;8.43;;
58244;SDS011;44550;43.864;25.986;2022-10-16T08:02:52;8.32;;;7.35;;
58244;SDS011;44550;43.864;25.986;2022-10-16T08:06:56;18.52;;;11.10;;
58244;SDS011;44550;43.864;25.986;2022-10-16T08:11:19;17.73;;;10.65;;
58244;SDS011;44550;43.864;25.986;2022-10-16T08:15:25;8.00;;;5.82;;
58244;SDS011;44550;43.864;25.986;2022-10-16T08:19:30;8.43;;;6.65;;
58244;SDS011;44550;43.864;25.986;2022-10-16T08:23:33;11.48;;;8.98;;
58244;SDS011;44550;43.864;25.986;2022-10-16T08:27:33;7.50;;;6.50;;
58244;SDS011;44550;43.864;25.986;2022-10-16T08:31:33;10.65;;;6.47;;
58244;SDS011;44550;43.864;25.986;2022-10-16T08:35:35;7.95;;;5.55;;
58244;SDS011;44550;43.864;25.986;2022-10-16T08:39:35;10.50;;;8.13;;
58244;SDS011;44550;43.864;25.986;2022-10-16T08:43:39;13.63;;;8.40;;
58244;SDS011;44550;43.864;25.986;2022-10-16T08:47:49;13.20;;;8.07;;
58244;SDS011;44550;43.864;25.986;2022-10-16T08:52:02;12.18;;;7.97;;
58244;SDS011;44550;43.864;25.986;2022-10-16T08:56:02;10.23;;;8.02;;
58244;SDS011;44550;43.864;25.986;2022-10-16T09:00:05;12.75;;;7.70;;
58244;SDS011;44550;43.864;25.986;2022-10-16T09:04:33;13.98;;;8.27;;
58244;SDS011;44550;43.864;25.986;2022-10-16T09:13:12;18.35;;;8.00;;
58244;SDS011;44550;43.864;25.986;2022-10-16T09:17:21;9.70;;;8.23;;
58244;SDS011;44550;43.864;25.986;2022-10-16T09:21:36;12.77;;;8.13;;
58244;SDS011;44550;43.864;25.986;2022-10-16T09:25:43;12.27;;;6.70;;
58244;SDS011;44550;43.864;25.986;2022-10-16T09:29:55;12.07;;;7.13;;
58244;SDS011;44550;43.864;25.986;2022-10-16T09:33:59;12.88;;;7.35;;
58244;SDS011;44550;43.864;25.986;2022-10-16T09:38:03;11.73;;;7.60;;
58244;SDS011;44550;43.864;25.986;2022-10-16T09:42:03;12.50;;;7.10;;
58244;SDS011;44550;43.864;25.986;2022-10-16T09:46:07;10.80;;;5.78;;
58244;SDS011;44550;43.864;25.986;2022-10-16T09:50:21;9.50;;;6.20;;
58244;SDS011;44550;43.864;25.986;2022-10-16T09:54:23;8.73;;;5.10;;
58244;SDS011;44550;43.864;25.986;2022-10-16T09:58:26;10.40;;;7.00;;
58244;SDS011;44550;43.864;25.986;2022-10-16T10:02:29;8.48;;;5.72;;
58244;SDS011;44550;43.864;25.986;2022-10-16T10:06:30;10.05;;;7.55;;
58244;SDS011;44550;43.864;25.986;2022-10-16T10:10:37;9.45;;;6.30;;
58244;SDS011;44550;43.864;25.986;2022-10-16T10:14:42;10.60;;;6.78;;
58244;SDS011;44550;43.864;25.986;2022-10-16T10:18:57;17.42;;;8.05;;
58244;SDS011;44550;43.864;25.986;2022-10-16T10:23:00;13.68;;;7.10;;
58244;SDS011;44550;43.864;25.986;2022-10-16T10:27:29;10.48;;;8.85;;
58244;SDS011;44550;43.864;25.986;2022-10-16T10:31:47;13.23;;;7.50;;
58244;SDS011;44550;43.864;25.986;2022-10-16T10:36:08;12.70;;;8.98;;
58244;SDS011;44550;43.864;25.986;2022-10-16T10:40:37;12.32;;;9.48;;
58244;SDS011;44550;43.864;25.986;2022-10-16T10:44:55;13.15;;;9.10;;
58244;SDS011;44550;43.864;25.986;2022-10-16T10:49:33;10.73;;;8.50;;
58244;SDS011;44550;43.864;25.986;2022-10-16T10:53:47;13.20;;;7.70;;
58244;SDS011;44550;43.864;25.986;2022-10-16T10:57:57;9.47;;;6.93;;
58244;SDS011;44550;43.864;25.986;2022-10-16T11:06:52;11.52;;;6.28;;
58244;SDS011;44550;43.864;25.986;2022-10-16T11:11:00;5.80;;;4.57;;
58244;SDS011;44550;43.864;25.986;2022-10-16T11:15:04;9.55;;;6.35;;
58244;SDS011;44550;43.864;25.986;2022-10-16T11:19:14;13.02;;;7.05;;
58244;SDS011;44550;43.864;25.986;2022-10-16T11:23:28;9.48;;;6.90;;
58244;SDS011;44550;43.864;25.986;2022-10-16T11:27:35;12.98;;;5.85;;
58244;SDS011;44550;43.864;25.986;2022-10-16T11:31:38;8.57;;;5.63;;
58244;SDS011;44550;43.864;25.986;2022-10-16T11:35:43;7.05;;;6.28;;
58244;SDS011;44550;43.864;25.986;2022-10-16T11:39:47;9.55;;;7.32;;
58244;SDS011;44550;43.864;25.986;2022-10-16T11:43:53;8.82;;;7.20;;
58244;SDS011;44550;43.864;25.986;2022-10-16T11:48:06;20.20;;;10.50;;
58244;SDS011;44550;43.864;25.986;2022-10-16T11:52:15;10.02;;;8.30;;
58244;SDS011;44550;43.864;25.986;2022-10-16T11:56:20;15.35;;;9.57;;
58244;SDS011;44550;43.864;25.986;2022-10-16T12:00:23;9.25;;;7.82;;
58244;SDS011;44550;43.864;25.986;2022-10-16T12:04:29;12.95;;;9.68;;
58244;SDS011;44550;43.864;25.986;2022-10-16T12:08:34;9.43;;;8.38;;
58244;SDS011;44550;43.864;25.986;2022-10-16T12:12:37;12.27;;;9.30;;
58244;SDS011;44550;43.864;25.986;2022-10-16T12:16:49;14.93;;;8.57;;
58244;SDS011;44550;43.864;25.986;2022-10-16T12:20:54;14.27;;;10.32;;
58244;SDS011;44550;43.864;25.986;2022-10-16T12:25:01;9.30;;;8.27;;
58244;SDS011;44550;43.864;25.986;2022-10-16T12:29:14;13.35;;;9.73;;
58244;SDS011;44550;43.864;25.986;2022-10-16T12:33:25;10.60;;;8.95;;
58244;SDS011;44550;43.864;25.986;2022-10-16T12:37:30;14.90;;;9.10;;
58244;SDS011;44550;43.864;25.986;2022-10-16T12:41:32;12.75;;;11.38;;
58244;SDS011;44550;43.864;25.986;2022-10-16T12:45:36;12.50;;;8.35;;
58244;SDS011;44550;43.864;25.986;2022-10-16T12:49:47;14.32;;;9.10;;
58244;SDS011;44550;43.864;25.986;2022-10-16T12:53:57;9.52;;;7.72;;
58244;SDS011;44550;43.864;25.986;2022-10-16T12:58:03;15.77;;;8.63;;
58244;SDS011;44550;43.864;25.986;2022-10-16T13:02:18;44.53;;;35.85;;
58244;SDS011;44550;43.864;25.986;2022-10-16T13:06:42;13.05;;;7.72;;
58244;SDS011;44550;43.864;25.986;2022-10-16T13:10:52;15.90;;;12.38;;
58244;SDS011;44550;43.864;25.986;2022-10-16T13:15:05;12.38;;;8.52;;
58244;SDS011;44550;43.864;25.986;2022-10-16T13:19:19;10.27;;;8.85;;
58244;SDS011;44550;43.864;25.986;2022-10-16T13:23:31;10.88;;;7.25;;
58244;SDS011;44550;43.864;25.986;2022-10-16T13:27:39;10.43;;;9.43;;
58244;SDS011;44550;43.864;25.986;2022-10-16T13:31:45;10.05;;;7.25;;
58244;SDS011;44550;43.864;25.986;2022-10-16T13:35:49;12.35;;;7.43;;
58244;SDS011;44550;43.864;25.986;2022-10-16T13:40:01;18.90;;;13.60;;
58244;SDS011;44550;43.864;25.986;2022-10-16T13:44:09;8.27;;;6.78;;
58244;SDS011;44550;43.864;25.986;2022-10-16T13:48:13;62.00;;;47.60;;
58244;SDS011;44550;43.864;25.986;2022-10-16T13:52:17;10.00;;;7.22;;
58244;SDS011;44550;43.864;25.986;2022-10-16T13:56:21;12.52;;;5.80;;
58244;SDS011;44550;43.864;25.986;2022-10-16T14:00:25;15.35;;;12.85;;
58244;SDS011;44550;43.864;25.986;2022-10-16T14:04:29;8.90;;;7.18;;
58244;SDS011;44550;43.864;25.986;2022-10-16T14:08:33;9.18;;;6.85;;
58244;SDS011;44550;43.864;25.986;2022-10-16T14:12:34;11.63;;;10.45;;
58244;SDS011;44550;43.864;25.986;2022-10-16T14:16:34;11.05;;;6.43;;
58244;SDS011;44550;43.864;25.986;2022-10-16T14:20:35;10.82;;;5.80;;
58244;SDS011;44550;43.864;25.986;2022-10-16T14:24:35;7.65;;;5.78;;
58244;SDS011;44550;43.864;25.986;2022-10-16T14:28:37;8.57;;;7.28;;
58244;SDS011;44550;43.864;25.986;2022-10-16T14:32:39;15.65;;;7.10;;
58244;SDS011;44550;43.864;25.986;2022-10-16T14:36:47;10.80;;;6.20;;
58244;SDS011;44550;43.864;25.986;2022-10-16T14:40:51;11.32;;;6.47;;
58244;SDS011;44550;43.864;25.986;2022-10-16T14:44:53;18.02;;;6.78;;
58244;SDS011;44550;43.864;25.986;2022-10-16T14:48:55;12.30;;;5.80;;
58244;SDS011;44550;43.864;25.986;2022-10-16T14:52:59;10.85;;;5.90;;
58244;SDS011;44550;43.864;25.986;2022-10-16T14:56:59;12.18;;;6.70;;
58244;SDS011;44550;43.864;25.986;2022-10-16T15:01:01;6.25;;;5.65;;
58244;SDS011;44550;43.864;25.986;2022-10-16T15:05:10;9.80;;;6.95;;
58244;SDS011;44550;43.864;25.986;2022-10-16T15:09:12;13.75;;;6.63;;
58244;SDS011;44550;43.864;25.986;2022-10-16T15:13:13;21.88;;;17.50;;
58244;SDS011;44550;43.864;25.986;2022-10-16T15:17:15;10.45;;;5.63;;
58244;SDS011;44550;43.864;25.986;2022-10-16T15:21:20;14.93;;;7.60;;
58244;SDS011;44550;43.864;25.986;2022-10-16T15:25:29;13.00;;;5.95;;
58244;SDS011;44550;43.864;25.986;2022-10-16T15:29:31;9.02;;;5.35;;
58244;SDS011;44550;43.864;25.986;2022-10-16T15:33:33;12.40;;;5.75;;
58244;SDS011;44550;43.864;25.986;2022-10-16T15:37:36;10.02;;;5.63;;
58244;SDS011;44550;43.864;25.986;2022-10-16T15:41:35;10.43;;;6.55;;
58244;SDS011;44550;43.864;25.986;2022-10-16T15:45:40;15.02;;;6.45;;
58244;SDS011;44550;43.864;25.986;2022-10-16T15:49:44;7.25;;;5.38;;
58244;SDS011;44550;43.864;25.986;2022-10-16T15:53:47;11.80;;;8.00;;
58244;SDS011;44550;43.864;25.986;2022-10-16T15:57:47;29.13;;;15.95;;
58244;SDS011;44550;43.864;25.986;2022-10-16T16:01:48;33.63;;;19.27;;
58244;SDS011;44550;43.864;25.986;2022-10-16T16:05:50;51.28;;;31.13;;
58244;SDS011;44550;43.864;25.986;2022-10-16T16:09:49;56.58;;;34.85;;
58244;SDS011;44550;43.864;25.986;2022-10-16T16:13:55;42.40;;;28.27;;
58244;SDS011;44550;43.864;25.986;2022-10-16T16:17:55;47.80;;;28.83;;
58244;SDS011;44550;43.864;25.986;2022-10-16T16:22:00;38.45;;;26.83;;
58244;SDS011;44550;43.864;25.986;2022-10-16T16:26:03;43.80;;;26.65;;
58244;SDS011;44550;43.864;25.986;2022-10-16T16:30:05;49.25;;;28.08;;
58244;SDS011;44550;43.864;25.986;2022-10-16T16:34:06;45.00;;;28.05;;
58244;SDS011;44550;43.864;25.986;2022-10-16T16:38:08;46.65;;;29.88;;
58244;SDS011;44550;43.864;25.986;2022-10-16T16:42:08;47.78;;;31.15;;
58244;SDS011;44550;43.864;25.986;2022-10-16T16:46:08;79.18;;;46.53;;
58244;SDS011;44550;43.864;25.986;2022-10-16T16:50:08;70.55;;;44.90;;
58244;SDS011;44550;43.864;25.986;2022-10-16T16:54:10;51.15;;;33.50;;
58244;SDS011;44550;43.864;25.986;2022-10-16T16:58:11;51.95;;;32.00;;
58244;SDS011;44550;43.864;25.986;2022-10-16T17:02:11;48.22;;;28.10;;
58244;SDS011;44550;43.864;25.986;2022-10-16T17:06:11;86.80;;;45.53;;
58244;SDS011;44550;43.864;25.986;2022-10-16T17:10:16;83.40;;;44.90;;
58244;SDS011;44550;43.864;25.986;2022-10-16T17:14:16;102.97;;;53.65;;
58244;SDS011;44550;43.864;25.986;2022-10-16T17:18:16;133.82;;;82.90;;
58244;SDS011;44550;43.864;25.986;2022-10-16T17:22:16;115.28;;;72.03;;
58244;SDS011;44550;43.864;25.986;2022-10-16T17:26:18;113.10;;;64.45;;
58244;SDS011;44550;43.864;25.986;2022-10-16T17:30:17;93.72;;;57.65;;
58244;SDS011;44550;43.864;25.986;2022-10-16T17:34:17;100.97;;;59.65;;
58244;SDS011;44550;43.864;25.986;2022-10-16T17:38:17;100.57;;;59.40;;
58244;SDS011;44550;43.864;25.986;2022-10-16T17:42:22;94.25;;;59.22;;
58244;SDS011;44550;43.864;25.986;2022-10-16T17:46:23;105.65;;;64.85;;
58244;SDS011;44550;43.864;25.986;2022-10-16T17:50:23;115.10;;;70.75;;
58244;SDS011;44550;43.864;25.986;2022-10-16T17:54:23;112.05;;;70.60;;
58244;SDS011;44550;43.864;25.986;2022-10-16T17:58:25;108.50;;;60.72;;
58244;SDS011;44550;43.864;25.986;2022-10-16T18:02:30;73.93;;;42.20;;
58244;SDS011;44550;43.864;25.986;2022-10-16T18:06:31;53.47;;;31.05;;
58244;SDS011;44550;43.864;25.986;2022-10-16T18:10:31;43.92;;;27.40;;
58244;SDS011;44550;43.864;25.986;2022-10-16T18:18:37;35.97;;;20.85;;
58244;SDS011;44550;43.864;25.986;2022-10-16T18:22:38;32.30;;;19.67;;
58244;SDS011;44550;43.864;25.986;2022-10-16T18:30:39;31.02;;;20.27;;
58244;SDS011;44550;43.864;25.986;2022-10-16T18:34:38;23.77;;;18.25;;
58244;SDS011;44550;43.864;25.986;2022-10-16T18:38:38;23.33;;;17.27;;
58244;SDS011;44550;43.864;25.986;2022-10-16T18:42:38;20.52;;;14.15;;
58244;SDS011;44550;43.864;25.986;2022-10-16T18:50:39;22.38;;;15.82;;
58244;SDS011;44550;43.864;25.986;2022-10-16T18:54:39;24.50;;;16.83;;
58244;SDS011;44550;43.864;25.986;2022-10-16T18:58:39;23.23;;;17.48;;
58244;SDS011;44550;43.864;25.986;2022-10-16T19:02:42;28.38;;;18.15;;
58244;SDS011;44550;43.864;25.986;2022-10-16T19:06:42;20.75;;;16.45;;
58244;SDS011;44550;43.864;25.986;2022-10-16T19:10:44;19.27;;;15.77;;
58244;SDS011;44550;43.864;25.986;2022-10-16T19:14:43;21.63;;;13.32;;
58244;SDS011;44550;43.864;25.986;2022-10-16T19:18:49;18.63;;;14.35;;
58244;SDS011;44550;43.864;25.986;2022-10-16T19:22:50;22.17;;;15.10;;
58244;SDS011;44550;43.864;25.986;2022-10-16T19:26:59;23.45;;;13.02;;
58244;SDS011;44550;43.864;25.986;2022-10-16T19:30:59;19.83;;;12.45;;
58244;SDS011;44550;43.864;25.986;2022-10-16T19:35:02;20.63;;;14.00;;
58244;SDS011;44550;43.864;25.986;2022-10-16T19:39:04;21.67;;;13.80;;
58244;SDS011;44550;43.864;25.986;2022-10-16T19:43:05;19.77;;;13.50;;
58244;SDS011;44550;43.864;25.986;2022-10-16T19:51:06;19.00;;;12.15;;
58244;SDS011;44550;43.864;25.986;2022-10-16T19:55:12;17.95;;;11.25;;
58244;SDS011;44550;43.864;25.986;2022-10-16T19:59:13;20.40;;;11.38;;
58244;SDS011;44550;43.864;25.986;2022-10-16T20:03:14;19.73;;;12.13;;
58244;SDS011;44550;43.864;25.986;2022-10-16T20:07:16;20.67;;;12.73;;
58244;SDS011;44550;43.864;25.986;2022-10-16T20:11:18;17.75;;;12.95;;
58244;SDS011;44550;43.864;25.986;2022-10-16T20:15:19;21.08;;;12.00;;
58244;SDS011;44550;43.864;25.986;2022-10-16T20:19:18;23.90;;;12.48;;
58244;SDS011;44550;43.864;25.986;2022-10-16T20:23:20;16.23;;;11.35;;
58244;SDS011;44550;43.864;25.986;2022-10-16T20:27:20;20.17;;;10.90;;
58244;SDS011;44550;43.864;25.986;2022-10-16T20:31:21;201.05;;;172.38;;
58244;SDS011;44550;43.864;25.986;2022-10-16T20:35:22;40.03;;;32.10;;
58244;SDS011;44550;43.864;25.986;2022-10-16T20:43:23;19.90;;;15.45;;
58244;SDS011;44550;43.864;25.986;2022-10-16T20:51:23;16.27;;;10.75;;
58244;SDS011;44550;43.864;25.986;2022-10-16T20:55:26;8.32;;;7.47;;
58244;SDS011;44550;43.864;25.986;2022-10-16T20:59:27;8.02;;;7.07;;
58244;SDS011;44550;43.864;25.986;2022-10-16T21:03:27;11.48;;;8.15;;
58244;SDS011;44550;43.864;25.986;2022-10-16T21:07:27;9.82;;;6.57;;
58244;SDS011;44550;43.864;25.986;2022-10-16T21:11:29;8.45;;;5.95;;
58244;SDS011;44550;43.864;25.986;2022-10-16T21:15:31;7.75;;;5.22;;
58244;SDS011;44550;43.864;25.986;2022-10-16T21:19:30;11.43;;;5.93;;
58244;SDS011;44550;43.864;25.986;2022-10-16T21:23:30;15.98;;;11.90;;
58244;SDS011;44550;43.864;25.986;2022-10-16T21:27:36;11.80;;;8.07;;
58244;SDS011;44550;43.864;25.986;2022-10-16T21:31:36;11.82;;;8.98;;
58244;SDS011;44550;43.864;25.986;2022-10-16T21:35:36;10.82;;;7.38;;
58244;SDS011;44550;43.864;25.986;2022-10-16T21:39:35;10.63;;;7.40;;
58244;SDS011;44550;43.864;25.986;2022-10-16T21:47:36;13.85;;;5.18;;
58244;SDS011;44550;43.864;25.986;2022-10-16T21:51:36;9.55;;;5.82;;
58244;SDS011;44550;43.864;25.986;2022-10-16T21:55:37;9.15;;;5.93;;
58244;SDS011;44550;43.864;25.986;2022-10-16T21:59:38;8.15;;;6.22;;
58244;SDS011;44550;43.864;25.986;2022-10-16T22:03:38;7.63;;;5.75;;
58244;SDS011;44550;43.864;25.986;2022-10-16T22:11:36;8.52;;;5.57;;
58244;SDS011;44550;43.864;25.986;2022-10-16T22:15:37;12.75;;;6.70;;
58244;SDS011;44550;43.864;25.986;2022-10-16T22:19:37;12.88;;;8.20;;
58244;SDS011;44550;43.864;25.986;2022-10-16T22:27:36;13.07;;;8.30;;
58244;SDS011;44550;43.864;25.986;2022-10-16T22:31:37;12.02;;;8.93;;
58244;SDS011;44550;43.864;25.986;2022-10-16T22:35:37;12.75;;;8.10;;
58244;SDS011;44550;43.864;25.986;2022-10-16T22:39:38;14.02;;;8.57;;
58244;SDS011;44550;43.864;25.986;2022-10-16T22:43:38;13.68;;;8.90;;
58244;SDS011;44550;43.864;25.986;2022-10-16T22:47:41;81.47;;;72.72;;
58244;SDS011;44550;43.864;25.986;2022-10-16T22:51:41;23.58;;;20.02;;
58244;SDS011;44550;43.864;25.986;2022-10-16T22:59:40;11.52;;;7.78;;
58244;SDS011;44550;43.864;25.986;2022-10-16T23:07:40;8.52;;;6.18;;
58244;SDS011;44550;43.864;25.986;2022-10-16T23:11:42;6.95;;;6.25;;
58244;SDS011;44550;43.864;25.986;2022-10-16T23:19:43;15.07;;;6.47;;
58244;SDS011;44550;43.864;25.986;2022-10-16T23:23:43;7.68;;;6.88;;
58244;SDS011;44550;43.864;25.986;2022-10-16T23:27:42;12.75;;;7.70;;
58244;SDS011;44550;43.864;25.986;2022-10-16T23:31:42;11.18;;;8.63;;
58244;SDS011;44550;43.864;25.986;2022-10-16T23:35:43;8.60;;;7.38;;
58244;SDS011;44550;43.864;25.986;2022-10-16T23:39:43;10.73;;;7.70;;
58244;SDS011;44550;43.864;25.986;2022-10-16T23:43:42;9.57;;;7.00;;
58244;SDS011;44550;43.864;25.986;2022-10-16T23:47:42;16.08;;;9.38;;
58244;SDS011;44550;43.864;25.986;2022-10-16T23:51:43;9.80;;;7.38;;
58244;SDS011;44550;43.864;25.986;2022-10-16T23:55:43;9.57;;;7.72;;
58244;SDS011;44550;43.864;25.986;2022-10-16T23:59:42;14.95;;;8.18;;
